createdAt,value
2023-05-06T00:04:32.815Z,100.00
2023-05-06T00:09:35.193Z,100.00
2023-05-06T00:14:36.903Z,100.00
2023-05-06T00:19:40.406Z,100.00
2023-05-06T00:24:42.544Z,100.00
2023-05-06T00:29:44.655Z,100.00
2023-05-06T00:34:48.174Z,100.00
2023-05-06T00:39:50.291Z,100.00
2023-05-06T00:44:52.971Z,100.00
2023-05-06T00:49:56.748Z,100.00
2023-05-06T00:54:58.918Z,100.00
2023-05-06T01:00:00.902Z,100.00
2023-05-06T01:05:05.006Z,100.00
2023-05-06T01:10:13.661Z,100.00
2023-05-06T01:15:20.486Z,100.00
2023-05-06T01:20:25.318Z,100.00
2023-05-06T01:25:28.744Z,100.00
2023-05-06T01:30:51.602Z,100.00
2023-05-06T01:36:02.030Z,100.00
2023-05-06T01:41:06.292Z,100.00
2023-05-06T01:46:12.712Z,100.00
2023-05-06T01:51:14.723Z,100.00
2023-05-06T01:56:18.292Z,100.00
2023-05-06T02:01:20.801Z,100.00
2023-05-06T02:06:23.053Z,100.00
2023-05-06T02:11:26.260Z,100.00
2023-05-06T02:16:28.110Z,100.00
2023-05-06T02:21:30.341Z,100.00
2023-05-06T02:26:34.787Z,100.00
2023-05-06T02:31:36.986Z,100.00
2023-05-06T02:36:39.163Z,100.00
2023-05-06T02:41:42.786Z,100.00
2023-05-06T02:46:44.482Z,100.00
2023-05-06T02:51:46.637Z,100.00
2023-05-06T02:56:49.724Z,100.00
2023-05-06T03:01:51.947Z,100.00
2023-05-06T03:06:54.079Z,100.00
2023-05-06T03:11:57.854Z,100.00
2023-05-06T03:17:00.068Z,100.00
2023-05-06T03:22:02.601Z,100.00
2023-05-06T03:27:06.088Z,100.00
2023-05-06T03:32:08.206Z,100.00
2023-05-06T03:37:10.434Z,100.00
2023-05-06T03:42:14.056Z,100.00
2023-05-06T03:47:16.022Z,100.00
2023-05-06T03:52:18.715Z,100.00
2023-05-06T03:57:22.159Z,100.00
2023-05-06T04:02:24.661Z,100.00
2023-05-06T04:07:26.757Z,100.00
2023-05-06T04:12:30.251Z,100.00
2023-05-06T04:17:32.557Z,100.00
2023-05-06T04:22:34.714Z,100.00
2023-05-06T04:27:37.878Z,100.00
2023-05-06T04:32:40.205Z,100.00
2023-05-06T04:37:42.371Z,100.00
2023-05-06T04:42:45.926Z,100.00
2023-05-06T04:47:47.921Z,100.00
2023-05-06T04:52:49.899Z,100.00
2023-05-06T04:57:53.040Z,100.00
2023-05-06T05:02:55.370Z,100.00
2023-05-06T05:07:57.085Z,100.00
2023-05-06T05:13:00.511Z,100.00
2023-05-06T05:18:02.680Z,100.00
2023-05-06T05:23:04.805Z,100.00
2023-05-06T05:28:08.251Z,100.00
2023-05-06T05:33:10.463Z,100.00
2023-05-06T05:38:12.971Z,100.00
2023-05-06T05:43:16.034Z,100.00
2023-05-06T05:48:18.134Z,100.00
2023-05-06T05:53:20.197Z,100.00
2023-05-06T05:58:23.385Z,100.00
2023-05-06T06:03:26.079Z,100.00
2023-05-06T06:08:28.180Z,100.00
2023-05-06T06:13:32.087Z,100.00
2023-05-06T06:18:34.431Z,100.00
2023-05-06T06:23:36.623Z,100.00
2023-05-06T06:28:39.994Z,100.00
2023-05-06T06:33:42.109Z,100.00
2023-05-06T06:38:45.431Z,100.00
2023-05-06T06:43:49.081Z,100.00
2023-05-06T06:48:50.765Z,100.00
2023-05-06T06:53:52.487Z,100.00
2023-05-06T06:58:56.043Z,99.97
2023-05-06T07:03:58.394Z,100.00
2023-05-06T07:09:00.156Z,98.18
2023-05-06T07:14:04.153Z,97.21
2023-05-06T07:19:06.321Z,97.27
2023-05-06T07:24:08.684Z,97.78
2023-05-06T07:29:11.797Z,97.97
2023-05-06T07:34:13.943Z,97.52
2023-05-06T07:39:15.746Z,97.14
2023-05-06T07:44:18.865Z,97.88
2023-05-06T07:49:20.561Z,97.07
2023-05-06T07:54:22.248Z,97.93
2023-05-06T07:59:25.405Z,98.61
2023-05-06T08:04:27.407Z,97.41
2023-05-06T08:09:29.956Z,97.68
2023-05-06T08:14:33.621Z,97.62
2023-05-06T08:19:35.668Z,97.74
2023-05-06T08:24:37.874Z,97.78
2023-05-06T08:29:41.360Z,97.77
2023-05-06T08:34:43.079Z,97.36
2023-05-06T08:39:44.929Z,97.92
2023-05-06T08:44:49.075Z,97.95
2023-05-06T08:49:51.031Z,97.12
2023-05-06T08:54:56.496Z,95.91
2023-05-06T09:00:00.545Z,95.24
2023-05-06T09:05:02.585Z,95.35
2023-05-06T09:10:07.716Z,95.15
2023-05-06T09:15:11.396Z,95.88
2023-05-06T09:20:13.639Z,95.57
2023-05-06T09:25:15.701Z,96.37
2023-05-06T09:30:18.998Z,96.38
2023-05-06T09:35:21.008Z,95.59
2023-05-06T09:40:24.369Z,95.50
2023-05-06T09:45:29.098Z,95.30
2023-05-06T09:50:32.585Z,97.86
2023-05-06T09:55:35.910Z,96.53
2023-05-06T10:00:40.246Z,95.92
2023-05-06T10:05:43.226Z,96.02
2023-05-06T10:10:45.864Z,96.40
2023-05-06T10:15:50.367Z,96.31
2023-05-06T10:20:52.601Z,97.02
2023-05-06T10:25:57.000Z,97.06
2023-05-06T10:31:04.833Z,97.55
2023-05-06T10:36:14.837Z,97.04
2023-05-06T10:41:17.764Z,97.64
2023-05-06T10:46:21.338Z,97.50
2023-05-06T10:51:27.757Z,97.62
2023-05-06T10:56:31.216Z,96.85
2023-05-06T11:01:35.000Z,96.84
2023-05-06T11:06:40.632Z,97.04
2023-05-06T11:11:59.980Z,97.51
2023-05-06T11:17:04.194Z,98.03
2023-05-06T11:22:07.251Z,97.46
2023-05-06T11:27:10.327Z,98.39
2023-05-06T11:32:22.732Z,99.58
2023-05-06T11:37:26.060Z,100.00
2023-05-06T11:42:28.797Z,99.77
2023-05-06T11:47:31.939Z,99.40
2023-05-06T11:52:35.732Z,98.70
2023-05-06T11:57:42.396Z,97.46
2023-05-06T12:02:46.093Z,96.12
2023-05-06T12:07:48.625Z,95.90
2023-05-06T12:12:51.324Z,96.76
2023-05-06T12:17:54.981Z,96.12
2023-05-06T12:23:06.207Z,97.14
2023-05-06T12:28:14.349Z,97.95
2023-05-06T12:33:17.748Z,98.57
2023-05-06T12:38:19.545Z,99.13
2023-05-06T12:43:28.865Z,100.00
2023-05-06T12:48:32.858Z,100.00
2023-05-06T12:53:35.398Z,100.00
2023-05-06T12:58:37.682Z,100.00
2023-05-06T13:03:41.227Z,99.82
2023-05-06T13:08:43.540Z,100.00
2023-05-06T13:13:45.483Z,99.01
2023-05-06T13:18:49.115Z,98.50
2023-05-06T13:23:50.975Z,98.33
2023-05-06T13:28:53.575Z,97.80
2023-05-06T13:33:57.067Z,96.00
2023-05-06T13:38:59.184Z,95.79
2023-05-06T13:44:01.569Z,95.38
2023-05-06T13:49:05.107Z,95.69
2023-05-06T13:54:06.849Z,93.96
2023-05-06T13:59:09.012Z,94.76
2023-05-06T14:04:12.604Z,93.87
2023-05-06T14:09:14.581Z,94.13
2023-05-06T14:14:16.346Z,92.79
2023-05-06T14:19:19.656Z,92.87
2023-05-06T14:24:22.305Z,93.02
2023-05-06T14:29:24.024Z,92.22
2023-05-06T14:34:27.562Z,92.19
2023-05-06T14:39:29.539Z,93.01
2023-05-06T14:44:31.237Z,93.13
2023-05-06T14:49:34.639Z,92.80
2023-05-06T14:54:36.423Z,94.13
2023-05-06T14:59:38.854Z,94.96
2023-05-06T15:04:42.189Z,94.71
2023-05-06T15:09:44.481Z,94.56
2023-05-06T15:14:46.708Z,94.75
2023-05-06T15:19:50.053Z,94.75
2023-05-06T15:24:51.804Z,94.38
2023-05-06T15:29:53.547Z,96.93
2023-05-06T15:34:56.856Z,97.21
2023-05-06T15:39:59.058Z,96.54
2023-05-06T15:45:00.847Z,97.12
2023-05-06T15:50:14.080Z,96.99
2023-05-06T15:55:25.113Z,96.94
2023-05-06T16:00:28.588Z,97.64
2023-05-06T16:05:31.685Z,97.60
2023-05-06T16:10:33.666Z,97.90
2023-05-06T16:15:35.427Z,99.89
2023-05-06T16:20:38.710Z,100.00
2023-05-06T16:25:41.107Z,100.00
2023-05-06T16:30:42.800Z,100.00
2023-05-06T16:35:47.170Z,100.00
2023-05-06T16:40:49.382Z,100.00
2023-05-06T16:45:51.379Z,100.00
2023-05-06T16:50:54.546Z,100.00
2023-05-06T16:55:56.747Z,100.00
2023-05-06T17:00:58.493Z,100.00
2023-05-06T17:06:01.871Z,100.00
2023-05-06T17:11:06.672Z,100.00
2023-05-06T17:16:08.541Z,100.00
2023-05-06T17:21:11.720Z,98.90
2023-05-06T17:26:13.650Z,98.58
2023-05-06T17:31:15.420Z,99.07
2023-05-06T17:36:19.743Z,99.69
2023-05-06T17:41:21.428Z,98.02
2023-05-06T17:46:23.140Z,98.40
2023-05-06T17:51:26.915Z,97.63
2023-05-06T17:56:28.625Z,97.83
2023-05-06T18:01:30.665Z,97.82
2023-05-06T18:06:33.847Z,97.63
2023-05-06T18:11:37.347Z,97.89
2023-05-06T18:16:39.491Z,97.27
2023-05-06T18:21:42.978Z,96.91
2023-05-06T18:26:46.103Z,96.95
2023-05-06T18:31:48.229Z,97.55
2023-05-06T18:36:51.905Z,96.87
2023-05-06T18:41:54.365Z,96.82
2023-05-06T18:46:56.741Z,97.11
2023-05-06T18:52:00.332Z,97.03
2023-05-06T18:57:02.063Z,97.86
2023-05-06T19:02:05.756Z,96.47
2023-05-06T19:07:09.558Z,97.20
2023-05-06T19:12:11.630Z,96.82
2023-05-06T19:17:13.655Z,96.17
2023-05-06T19:22:17.187Z,97.04
2023-05-06T19:27:19.308Z,97.02
2023-05-06T19:32:22.446Z,97.13
2023-05-06T19:37:25.843Z,97.64
2023-05-06T19:42:27.591Z,97.03
2023-05-06T19:47:29.744Z,96.98
2023-05-06T19:52:33.316Z,96.20
2023-05-06T19:57:35.304Z,97.69
2023-05-06T20:02:37.601Z,96.76
2023-05-06T20:07:40.866Z,97.60
2023-05-06T20:12:42.882Z,97.73
2023-05-06T20:17:44.796Z,97.66
2023-05-06T20:22:48.467Z,97.51
2023-05-06T20:27:50.158Z,97.45
2023-05-06T20:32:52.230Z,98.16
2023-05-06T20:37:55.460Z,97.97
2023-05-06T20:42:57.171Z,98.05
2023-05-06T20:47:59.062Z,98.97
2023-05-06T20:53:02.215Z,98.34
2023-05-06T20:58:04.329Z,98.43
2023-05-06T21:03:06.176Z,98.86
2023-05-06T21:08:09.560Z,99.42
2023-05-06T21:13:11.528Z,99.23
2023-05-06T21:18:13.791Z,99.78
2023-05-06T21:23:17.403Z,100.00
2023-05-06T21:28:19.312Z,100.00
2023-05-06T21:33:21.386Z,100.00
2023-05-06T21:38:25.412Z,100.00
2023-05-06T21:43:27.771Z,100.00
2023-05-06T21:48:30.337Z,100.00
2023-05-06T21:53:33.367Z,100.00
2023-05-06T21:58:35.832Z,100.00
2023-05-06T22:03:38.078Z,100.00
2023-05-06T22:08:42.053Z,100.00
2023-05-06T22:13:44.327Z,100.00
2023-05-06T22:18:46.022Z,100.00
2023-05-06T22:23:49.111Z,100.00
2023-05-06T22:28:51.052Z,100.00
2023-05-06T22:33:54.414Z,100.00
2023-05-06T22:38:57.465Z,100.00
2023-05-06T22:44:00.230Z,100.00
2023-05-06T22:49:02.301Z,100.00
2023-05-06T22:54:05.472Z,100.00
2023-05-06T22:59:07.459Z,100.00
2023-05-06T23:04:09.236Z,100.00
2023-05-06T23:09:12.304Z,100.00
2023-05-06T23:14:14.656Z,100.00
2023-05-06T23:19:16.759Z,100.00
2023-05-06T23:24:19.774Z,100.00
2023-05-06T23:29:21.863Z,100.00
2023-05-06T23:34:23.800Z,100.00
2023-05-06T23:39:26.874Z,100.00
2023-05-06T23:44:29.432Z,100.00
2023-05-06T23:49:32.228Z,100.00
2023-05-06T23:54:36.426Z,100.00
2023-05-06T23:59:38.201Z,100.00
